首页
METAR-TAF:

METAR-TAF

机场 :

Gage, 奧克拉荷馬州, 美国

纬度: 36-17-48N, 经度: 099-46-08W, 海拔: 677米

当前天气观测

该预报发布于11分钟前的10:59 UTC
风速7节,风向
温度 18°C
湿度 94%
气压 1020 hPa
能見度: 2.8公里
散云层高于900英尺
多云层高于2500英尺
阴天层高于3800英尺
附近有雷暴, 大雨, 轻雾

METAR: KGAG 191059Z AUTO 08007KT 1 3/4SM VCTS +RA BR SCT009 BKN025 OVC038 18/17 A3013 RMK AO2 LTG DSNT ALQDS P0008 T01830172 $

时间: 06:10 (11:10 UTC)


TAF: 丢失

超过4000个机场的气象观测和天气预报(METAR&TAF报告)。

可查询的气象台以黄色和红色小点在地图上表示。

将鼠标移到小点上方,可查看气象台名称。

然后点击查看天气观测和预报。

如需切换地图:点击带黑十字的绿色按钮放大地图;点击带横线的绿色按钮缩小地图;或者点击绿色箭头查看邻近地区的地图。


METAR-TAF: